This is the latest recevied weather packets stored in our database for station/object KF0EZB. If no packets are shown the sender has not sent any weather packets the latest 10 day(s).
| Time | Temp. | Humidity | Pressure | Rain* | Wind** | Luminosity | Snow |
|---|---|---|---|---|---|---|---|
| 1777665465 | 20.56° C | 32% | 1017.6 hPa | 0 mm | - | 789 W/m² | - |
| 1777665161 | 21.11° C | 30% | 1017.7 hPa | 0 mm | - | 516 W/m² | - |
| 1777664250 | 20.56° C | 30% | 1017.8 hPa | 0 mm | - | 798 W/m² | - |
| 1777663645 | 19.44° C | 32% | 1018 hPa | 0 mm | - | 787 W/m² | - |
| 1777663342 | 18.89° C | 33% | 1018.2 hPa | 0 mm | - | 771 W/m² | - |
| 1777662736 | 20° C | 34% | 1018.2 hPa | 0 mm | - | 933 W/m² | - |
| 1777662433 | 19.44° C | 37% | 1018.2 hPa | 0 mm | - | 777 W/m² | - |
| 1777661825 | 18.89° C | 38% | 1018.2 hPa | 0 mm | - | 867 W/m² | - |
| 1777661521 | 18.89° C | 38% | 1018.3 hPa | 0 mm | - | 232 W/m² | - |
| 1777661217 | 20° C | 37% | 1018.2 hPa | 0 mm | - | 826 W/m² | - |
| 1777660614 | 19.44° C | 40% | 1018.7 hPa | 0 mm | - | 850 W/m² | - |
| 1777660310 | 19.44° C | 40% | 1018.7 hPa | 0 mm | - | 243 W/m² | - |
| 1777660007 | 18.89° C | 39% | 1018.7 hPa | 0 mm | - | 827 W/m² | - |
| 1777659703 | 19.44° C | 41% | 1018.7 hPa | 0 mm | - | 203 W/m² | - |
| 1777659401 | 19.44° C | 37% | 1018.7 hPa | 0 mm | - | 891 W/m² | - |
| 1777659097 | 18.89° C | 38% | 1018.7 hPa | 0 mm | - | 863 W/m² | - |
| 1777658796 | 18.33° C | 43% | 1019 hPa | 0 mm | - | 806 W/m² | - |
| 1777658491 | 18.33° C | 44% | 1019.1 hPa | 0 mm | - | 784 W/m² | - |
| 1777657886 | 18.89° C | 42% | 1019.1 hPa | 0 mm | - | 519 W/m² | - |
| 1777656977 | 18.33° C | 42% | 1019.4 hPa | 0 mm | - | 826 W/m² | - |
| 1777656674 | 17.78° C | 44% | 1019.7 hPa | 0 mm | - | 238 W/m² | - |
| 1777656369 | 18.89° C | 45% | 1019.3 hPa | 0 mm | - | 459 W/m² | - |
| 1777656065 | 18.89° C | 44% | 1019.3 hPa | 0 mm | - | 796 W/m² | - |
| 1777655761 | 18.33° C | 45% | 1019.4 hPa | 0 mm | - | 786 W/m² | - |
| 1777654852 | 17.22° C | 47% | 1019.6 hPa | 0 mm | - | 753 W/m² | - |
* Rain latest hour (hover to see other rain measurements)
** Current wind speed in m/s (hover to see current wind gust speed)